createdAt,value
2019-05-05T00:01:55.680Z,81.34
2019-05-05T00:04:45.479Z,81.91
2019-05-05T00:07:19.333Z,82.10
2019-05-05T00:09:49.003Z,82.12
2019-05-05T00:12:34.957Z,81.98
2019-05-05T00:15:27.184Z,81.76
2019-05-05T00:17:56.754Z,81.50
2019-05-05T00:20:26.205Z,81.82
2019-05-05T00:22:55.820Z,81.78
2019-05-05T00:25:25.378Z,82.04
2019-05-05T00:27:54.817Z,82.14
2019-05-05T00:30:24.961Z,82.10
2019-05-05T00:32:54.966Z,82.34
2019-05-05T00:35:25.239Z,81.77
2019-05-05T00:37:54.825Z,82.07
2019-05-05T00:40:24.909Z,82.11
2019-05-05T00:42:54.825Z,82.07
2019-05-05T00:45:26.504Z,82.28
2019-05-05T00:48:12.008Z,81.98
2019-05-05T00:50:41.775Z,82.25
2019-05-05T00:53:11.252Z,81.63
2019-05-05T00:55:40.697Z,81.75
2019-05-05T00:58:10.188Z,81.86
2019-05-05T01:01:08.057Z,81.95
2019-05-05T01:03:37.607Z,82.22
2019-05-05T01:06:14.988Z,81.71
2019-05-05T01:08:44.619Z,82.45
2019-05-05T01:11:16.063Z,82.55
2019-05-05T01:13:45.682Z,83.21
2019-05-05T01:16:15.314Z,83.67
2019-05-05T01:18:45.179Z,83.86
2019-05-05T01:21:15.103Z,83.81
2019-05-05T01:23:45.514Z,83.21
2019-05-05T01:26:15.120Z,83.18
2019-05-05T01:28:44.813Z,82.81
2019-05-05T01:31:18.196Z,83.18
2019-05-05T01:34:19.099Z,83.50
2019-05-05T01:36:54.353Z,82.45
2019-05-05T01:39:49.178Z,82.13
2019-05-05T01:42:18.736Z,83.13
2019-05-05T01:44:48.198Z,83.81
2019-05-05T01:47:17.692Z,84.03
2019-05-05T01:49:47.870Z,84.29
2019-05-05T01:52:17.391Z,83.89
2019-05-05T01:54:46.846Z,83.75
2019-05-05T01:57:16.505Z,83.57
2019-05-05T01:59:46.382Z,84.10
2019-05-05T02:02:15.835Z,84.24
2019-05-05T02:04:45.343Z,84.25
2019-05-05T02:07:15.122Z,83.92
2019-05-05T02:09:45.100Z,84.13
2019-05-05T02:12:15.870Z,83.74
2019-05-05T02:14:45.474Z,83.57
2019-05-05T02:17:15.015Z,83.25
2019-05-05T02:19:44.545Z,83.15
2019-05-05T02:22:14.780Z,83.48
2019-05-05T02:24:44.606Z,83.10
2019-05-05T02:27:14.793Z,83.03
2019-05-05T02:30:06.260Z,83.76
2019-05-05T02:32:55.400Z,83.77
2019-05-05T02:35:25.786Z,82.65
2019-05-05T02:37:55.943Z,82.60
2019-05-05T02:40:26.130Z,82.89
2019-05-05T02:42:57.105Z,82.70
2019-05-05T02:45:57.802Z,82.19
2019-05-05T02:48:29.296Z,82.40
2019-05-05T02:51:02.639Z,82.94
2019-05-05T02:53:43.963Z,82.81
2019-05-05T02:56:20.600Z,83.16
2019-05-05T02:58:53.802Z,83.31
2019-05-05T03:01:46.162Z,83.34
2019-05-05T03:04:15.668Z,83.34
2019-05-05T03:06:49.167Z,83.27
2019-05-05T03:09:21.423Z,83.21
2019-05-05T03:11:54.100Z,83.33
2019-05-05T03:14:26.432Z,83.82
2019-05-05T03:16:57.046Z,83.75
2019-05-05T03:19:27.007Z,84.26
2019-05-05T03:21:57.280Z,84.71
2019-05-05T03:24:27.324Z,84.88
2019-05-05T03:26:57.189Z,84.58
2019-05-05T03:29:27.143Z,84.81
2019-05-05T03:31:58.006Z,85.17
2019-05-05T03:34:28.074Z,84.66
2019-05-05T03:36:57.870Z,85.38
2019-05-05T03:39:30.369Z,85.19
2019-05-05T03:42:17.745Z,85.66
2019-05-05T03:44:59.957Z,85.64
2019-05-05T03:47:29.954Z,84.89
2019-05-05T03:49:59.613Z,85.20
2019-05-05T03:52:29.155Z,85.49
2019-05-05T03:54:59.478Z,85.46
2019-05-05T03:57:29.333Z,85.19
2019-05-05T03:59:59.100Z,84.51
2019-05-05T04:02:35.818Z,84.50
2019-05-05T04:05:18.812Z,84.85
2019-05-05T04:07:48.367Z,85.15
2019-05-05T04:10:17.871Z,85.24
2019-05-05T04:12:47.811Z,85.21
2019-05-05T04:15:17.453Z,84.63
2019-05-05T04:18:05.863Z,84.11
2019-05-05T04:20:40.965Z,84.15
2019-05-05T04:23:10.582Z,84.27
2019-05-05T04:25:40.018Z,85.16
2019-05-05T04:28:09.500Z,84.55
2019-05-05T04:30:39.135Z,83.78
2019-05-05T04:33:08.664Z,83.64
2019-05-05T04:35:38.137Z,84.00
2019-05-05T04:38:07.591Z,84.16
2019-05-05T04:40:37.062Z,84.19
2019-05-05T04:43:06.744Z,84.15
2019-05-05T04:45:36.204Z,83.81
2019-05-05T04:48:13.822Z,83.43
2019-05-05T04:51:00.877Z,83.00
2019-05-05T04:53:46.553Z,83.24
2019-05-05T04:56:15.996Z,82.45
2019-05-05T04:58:45.468Z,81.75
2019-05-05T05:01:14.940Z,82.37
2019-05-05T05:04:03.751Z,82.17
2019-05-05T05:06:40.179Z,81.70
2019-05-05T05:09:09.678Z,82.31
2019-05-05T05:11:39.306Z,82.62
2019-05-05T05:14:08.747Z,82.78
2019-05-05T05:16:38.331Z,82.64
2019-05-05T05:19:07.765Z,81.85
2019-05-05T05:21:37.312Z,82.14
2019-05-05T05:24:06.753Z,81.88
2019-05-05T05:26:36.235Z,80.67
2019-05-05T05:29:05.609Z,79.67
2019-05-05T05:31:35.047Z,80.27
2019-05-05T05:34:04.540Z,82.00
2019-05-05T05:36:33.991Z,80.72
2019-05-05T05:39:10.106Z,79.98
2019-05-05T05:41:46.448Z,79.72
2019-05-05T05:44:28.074Z,79.53
2019-05-05T05:47:03.648Z,79.07
2019-05-05T05:49:49.406Z,78.46
2019-05-05T05:52:19.448Z,79.32
2019-05-05T05:54:48.950Z,79.30
2019-05-05T05:57:18.356Z,77.45
2019-05-05T05:59:47.726Z,77.36
2019-05-05T06:02:17.129Z,78.11
2019-05-05T06:04:46.479Z,77.52
2019-05-05T06:07:15.977Z,76.47
2019-05-05T06:09:45.440Z,76.21
2019-05-05T06:12:14.850Z,75.94
2019-05-05T06:14:44.724Z,75.83
2019-05-05T06:17:14.275Z,76.08
2019-05-05T06:19:44.635Z,75.20
2019-05-05T06:22:27.851Z,74.93
2019-05-05T06:24:45.358Z,76.12
2019-05-05T06:27:15.003Z,76.75
2019-05-05T06:29:44.424Z,76.47
2019-05-05T06:32:14.600Z,75.67
2019-05-05T06:34:44.462Z,74.67
2019-05-05T06:37:14.457Z,75.05
2019-05-05T06:39:44.437Z,74.26
2019-05-05T06:42:31.648Z,74.41
2019-05-05T06:45:18.976Z,74.09
2019-05-05T06:47:48.368Z,75.03
2019-05-05T06:50:17.947Z,73.99
2019-05-05T06:52:47.333Z,74.46
2019-05-05T06:55:16.719Z,74.07
2019-05-05T06:57:46.158Z,73.79
2019-05-05T07:00:15.554Z,75.24
2019-05-05T07:02:44.933Z,74.59
2019-05-05T07:05:14.431Z,73.44
2019-05-05T07:07:43.782Z,73.14
2019-05-05T07:10:14.116Z,72.90
2019-05-05T07:12:44.077Z,71.13
2019-05-05T07:15:14.519Z,70.25
2019-05-05T07:17:44.393Z,71.56
2019-05-05T07:20:14.087Z,70.77
2019-05-05T07:22:57.994Z,70.32
2019-05-05T07:25:14.732Z,68.69
2019-05-05T07:27:44.372Z,69.24
2019-05-05T07:30:13.943Z,68.39
2019-05-05T07:32:44.286Z,70.93
2019-05-05T07:35:20.018Z,71.06
2019-05-05T07:37:49.401Z,69.45
2019-05-05T07:40:19.009Z,69.78
2019-05-05T07:42:48.498Z,68.95
2019-05-05T07:45:22.429Z,68.30
2019-05-05T07:47:48.991Z,68.07
2019-05-05T07:50:28.619Z,68.32
2019-05-05T07:52:49.543Z,68.74
2019-05-05T07:55:18.943Z,68.37
2019-05-05T07:57:48.335Z,67.88
2019-05-05T08:00:17.924Z,67.75
2019-05-05T08:02:47.280Z,66.63
2019-05-05T08:05:16.689Z,67.85
2019-05-05T08:07:46.043Z,69.02
2019-05-05T08:10:15.432Z,68.04
2019-05-05T08:12:44.807Z,67.77
2019-05-05T08:15:15.994Z,67.62
2019-05-05T08:18:07.415Z,67.93
2019-05-05T08:20:39.870Z,66.76
2019-05-05T08:23:28.576Z,67.58
2019-05-05T08:26:04.490Z,67.67
2019-05-05T08:28:44.963Z,67.56
2019-05-05T08:31:22.197Z,66.56
2019-05-05T08:33:51.591Z,66.05
2019-05-05T08:36:20.963Z,65.17
2019-05-05T08:38:50.366Z,64.07
2019-05-05T08:41:19.932Z,63.10
2019-05-05T08:43:49.413Z,65.13
2019-05-05T08:46:18.885Z,61.84
2019-05-05T08:48:48.305Z,62.89
2019-05-05T08:51:17.827Z,61.33
2019-05-05T08:53:48.408Z,62.01
2019-05-05T08:56:17.944Z,62.47
2019-05-05T08:58:49.816Z,60.72
2019-05-05T09:01:18.661Z,59.92
2019-05-05T09:03:48.053Z,59.78
2019-05-05T09:06:17.439Z,60.42
2019-05-05T09:08:47.161Z,61.21
2019-05-05T09:11:16.526Z,59.82
2019-05-05T09:13:46.006Z,59.10
2019-05-05T09:16:15.547Z,59.67
2019-05-05T09:19:10.346Z,59.67
2019-05-05T09:21:39.912Z,57.76
2019-05-05T09:24:40.725Z,57.76
2019-05-05T09:27:35.311Z,58.50
2019-05-05T09:30:06.193Z,58.18
2019-05-05T09:32:35.640Z,58.18
2019-05-05T09:35:05.662Z,54.01
2019-05-05T09:37:35.105Z,52.53
2019-05-05T09:40:05.079Z,52.53
2019-05-05T09:42:34.445Z,53.50
2019-05-05T09:45:04.753Z,52.66
2019-05-05T09:47:34.531Z,52.66
2019-05-05T09:50:04.093Z,52.55
2019-05-05T09:52:33.829Z,52.55
2019-05-05T09:55:03.943Z,54.49
2019-05-05T09:57:34.409Z,54.49
2019-05-05T10:00:10.651Z,55.57
2019-05-05T10:02:40.064Z,54.02
2019-05-05T10:05:09.815Z,54.03
2019-05-05T10:07:39.189Z,53.21
2019-05-05T10:10:09.310Z,53.89
2019-05-05T10:12:38.676Z,54.98
2019-05-05T10:15:08.404Z,53.77
2019-05-05T10:17:37.889Z,55.52
2019-05-05T10:20:07.726Z,53.89
2019-05-05T10:22:37.123Z,52.51
2019-05-05T10:25:24.875Z,52.51
2019-05-05T10:27:54.725Z,49.46
2019-05-05T10:30:24.216Z,49.46
2019-05-05T10:32:54.517Z,53.04
2019-05-05T10:35:24.069Z,49.89
2019-05-05T10:37:54.447Z,49.89
2019-05-05T10:40:27.884Z,46.40
2019-05-05T10:42:57.491Z,46.40
2019-05-05T10:45:27.335Z,47.03
2019-05-05T10:47:56.723Z,46.39
2019-05-05T10:50:26.089Z,46.39
2019-05-05T10:52:55.657Z,46.05
2019-05-05T10:55:25.096Z,46.50
2019-05-05T10:57:54.842Z,45.77
2019-05-05T11:00:49.394Z,45.42
2019-05-05T11:03:18.909Z,42.71
2019-05-05T11:05:48.654Z,44.77
2019-05-05T11:08:18.138Z,44.46
2019-05-05T11:10:48.148Z,43.36
2019-05-05T11:13:17.646Z,44.17
2019-05-05T11:15:47.286Z,43.83
2019-05-05T11:18:16.979Z,43.88
2019-05-05T11:20:46.449Z,43.23
2019-05-05T11:23:15.873Z,42.18
2019-05-05T11:25:45.623Z,44.89
2019-05-05T11:28:15.320Z,46.52
2019-05-05T11:30:45.801Z,47.82
2019-05-05T11:33:34.451Z,49.58
2019-05-05T11:36:23.998Z,49.58
2019-05-05T11:38:53.813Z,48.02
2019-05-05T11:41:24.241Z,51.46
2019-05-05T11:43:53.814Z,51.46
2019-05-05T11:46:24.744Z,50.45
2019-05-05T11:48:54.620Z,52.11
2019-05-05T11:51:24.941Z,52.20
2019-05-05T11:53:55.091Z,52.72
2019-05-05T11:56:24.660Z,51.60
2019-05-05T11:58:54.746Z,52.29
2019-05-05T12:01:24.431Z,53.12
2019-05-05T12:03:53.969Z,53.39
2019-05-05T12:06:24.699Z,53.79
2019-05-05T12:08:54.580Z,53.93
2019-05-05T12:11:24.193Z,54.66
2019-05-05T12:13:54.645Z,54.74
2019-05-05T12:16:31.542Z,53.86
2019-05-05T12:19:03.263Z,53.92
2019-05-05T12:21:33.735Z,53.06
2019-05-05T12:24:07.887Z,51.73
2019-05-05T12:26:59.027Z,50.55
2019-05-05T12:29:31.182Z,49.93
2019-05-05T12:32:00.564Z,49.93
2019-05-05T12:34:30.226Z,49.49
2019-05-05T12:36:59.651Z,48.26
2019-05-05T12:39:29.193Z,48.26
2019-05-05T12:41:58.782Z,47.47
2019-05-05T12:44:39.444Z,46.04
2019-05-05T12:47:19.268Z,46.47
2019-05-05T12:49:48.702Z,45.57
2019-05-05T12:52:18.057Z,44.81
2019-05-05T12:54:47.460Z,43.93
2019-05-05T12:57:16.857Z,43.41
2019-05-05T12:59:46.220Z,41.86
2019-05-05T13:02:15.723Z,41.39
2019-05-05T13:04:45.292Z,41.50
2019-05-05T13:07:14.703Z,42.50
2019-05-05T13:09:44.283Z,44.38
2019-05-05T13:12:14.991Z,42.11
2019-05-05T13:14:44.559Z,43.49
2019-05-05T13:17:14.287Z,41.47
2019-05-05T13:19:51.077Z,40.72
2019-05-05T13:22:54.995Z,41.48
2019-05-05T13:25:33.648Z,39.82
2019-05-05T13:28:04.124Z,40.85
2019-05-05T13:30:34.383Z,40.41
2019-05-05T13:33:05.447Z,40.34
2019-05-05T13:35:34.980Z,39.94
2019-05-05T13:38:04.377Z,43.10
2019-05-05T13:40:34.602Z,45.41
2019-05-05T13:43:04.426Z,48.04
2019-05-05T13:45:44.887Z,50.52
2019-05-05T13:48:14.429Z,49.80
2019-05-05T13:50:46.243Z,49.80
2019-05-05T13:53:15.704Z,50.87
2019-05-05T13:55:46.049Z,49.70
2019-05-05T13:58:15.529Z,48.22
2019-05-05T14:00:44.901Z,46.26
2019-05-05T14:03:14.396Z,46.26
2019-05-05T14:05:43.808Z,45.04
2019-05-05T14:08:14.680Z,45.26
2019-05-05T14:10:44.179Z,46.79
2019-05-05T14:13:15.203Z,44.58
2019-05-05T14:15:44.781Z,43.77
2019-05-05T14:18:14.406Z,44.59
2019-05-05T14:20:43.800Z,44.09
2019-05-05T14:23:14.885Z,44.66
2019-05-05T14:25:44.537Z,46.12
2019-05-05T14:28:14.217Z,46.47
2019-05-05T14:30:49.342Z,48.09
2019-05-05T14:33:24.698Z,46.24
2019-05-05T14:36:13.811Z,45.43
2019-05-05T14:38:49.578Z,50.46
2019-05-05T14:41:19.108Z,50.46
2019-05-05T14:43:48.530Z,51.14
2019-05-05T14:46:17.911Z,52.89
2019-05-05T14:48:47.289Z,52.89
2019-05-05T14:51:17.062Z,58.60
2019-05-05T14:53:46.414Z,52.15
2019-05-05T14:56:15.815Z,53.35
2019-05-05T14:58:45.218Z,53.35
2019-05-05T15:01:14.619Z,50.48
2019-05-05T15:03:44.556Z,50.48
2019-05-05T15:06:35.729Z,51.55
2019-05-05T15:09:38.949Z,50.15
2019-05-05T15:12:19.662Z,50.15
2019-05-05T15:14:49.073Z,49.87
2019-05-05T15:17:18.430Z,50.68
2019-05-05T15:19:47.843Z,44.90
2019-05-05T15:22:17.266Z,43.60
2019-05-05T15:24:47.224Z,44.87
2019-05-05T15:27:16.609Z,45.11
2019-05-05T15:29:46.001Z,45.05
2019-05-05T15:32:15.392Z,46.65
2019-05-05T15:34:44.771Z,47.01
2019-05-05T15:37:14.547Z,47.81
2019-05-05T15:39:44.285Z,47.74
2019-05-05T15:42:13.694Z,47.74
2019-05-05T15:44:43.897Z,47.93
2019-05-05T15:47:13.682Z,47.93
2019-05-05T15:49:44.100Z,47.69
2019-05-05T15:52:13.840Z,47.49
2019-05-05T15:54:44.707Z,45.90
2019-05-05T15:57:14.855Z,44.78
2019-05-05T15:59:45.328Z,44.10
2019-05-05T16:02:14.731Z,43.92
2019-05-05T16:04:44.204Z,42.59
2019-05-05T16:07:13.906Z,42.73
2019-05-05T16:09:44.364Z,42.21
2019-05-05T16:12:14.775Z,42.60
2019-05-05T16:15:04.356Z,42.07
2019-05-05T16:17:48.210Z,41.47
2019-05-05T16:20:24.340Z,40.86
2019-05-05T16:23:03.565Z,40.47
2019-05-05T16:25:33.274Z,41.84
2019-05-05T16:28:05.374Z,43.00
2019-05-05T16:30:33.973Z,43.00
2019-05-05T16:33:04.211Z,42.90
2019-05-05T16:35:34.275Z,43.13
2019-05-05T16:38:06.460Z,43.37
2019-05-05T16:40:35.258Z,43.37
2019-05-05T16:43:04.759Z,43.99
2019-05-05T16:45:34.151Z,43.99
2019-05-05T16:48:04.002Z,44.32
2019-05-05T16:50:34.087Z,44.10
2019-05-05T16:53:05.935Z,45.28
2019-05-05T16:55:55.868Z,42.72
2019-05-05T16:58:25.228Z,43.35
2019-05-05T17:00:55.177Z,41.85
2019-05-05T17:03:24.558Z,41.85
2019-05-05T17:05:54.681Z,40.80
2019-05-05T17:08:25.181Z,40.09
2019-05-05T17:10:54.558Z,39.36
2019-05-05T17:13:30.485Z,38.37
2019-05-05T17:16:22.149Z,37.35
2019-05-05T17:19:00.677Z,37.27
2019-05-05T17:21:47.997Z,37.15
2019-05-05T17:24:17.457Z,36.91
2019-05-05T17:26:46.909Z,35.88
2019-05-05T17:29:16.286Z,35.33
2019-05-05T17:31:45.672Z,36.51
2019-05-05T17:34:15.060Z,36.93
2019-05-05T17:36:45.316Z,36.97
2019-05-05T17:39:14.877Z,36.89
2019-05-05T17:42:18.367Z,36.42
2019-05-05T17:45:14.160Z,35.19
2019-05-05T17:47:48.138Z,35.59
2019-05-05T17:50:23.956Z,37.37
2019-05-05T17:53:08.867Z,36.70
2019-05-05T17:55:40.605Z,37.58
2019-05-05T17:58:10.005Z,39.40
2019-05-05T18:00:47.131Z,43.15
2019-05-05T18:03:16.878Z,42.96
2019-05-05T18:05:59.421Z,45.39
2019-05-05T18:08:37.906Z,46.00
2019-05-05T18:11:13.913Z,47.61
2019-05-05T18:13:46.857Z,47.07
2019-05-05T18:16:17.389Z,46.71
2019-05-05T18:18:46.779Z,42.96
2019-05-05T18:21:16.165Z,42.96
2019-05-05T18:23:45.550Z,45.64
2019-05-05T18:26:15.022Z,45.64
2019-05-05T18:28:45.454Z,45.31
2019-05-05T18:31:15.579Z,43.11
2019-05-05T18:33:44.942Z,43.11
2019-05-05T18:36:14.427Z,43.95
2019-05-05T18:38:44.455Z,45.07
2019-05-05T18:41:21.198Z,43.96
2019-05-05T18:44:00.795Z,44.92
2019-05-05T18:46:30.830Z,44.80
2019-05-05T18:49:00.224Z,44.80
2019-05-05T18:51:29.597Z,45.39
2019-05-05T18:53:58.985Z,45.39
2019-05-05T18:56:28.470Z,45.97
2019-05-05T18:58:57.951Z,45.97
2019-05-05T19:01:38.396Z,44.03
2019-05-05T19:04:36.243Z,44.03
2019-05-05T19:07:10.439Z,45.57
2019-05-05T19:09:51.196Z,45.57
2019-05-05T19:12:10.967Z,45.22
2019-05-05T19:14:40.376Z,45.22
2019-05-05T19:17:09.831Z,45.28
2019-05-05T19:19:40.942Z,46.33
2019-05-05T19:22:13.741Z,46.76
2019-05-05T19:24:44.092Z,46.76
2019-05-05T19:27:14.179Z,47.00
2019-05-05T19:29:45.970Z,47.86
2019-05-05T19:32:14.866Z,47.86
2019-05-05T19:34:44.257Z,47.88
2019-05-05T19:37:14.070Z,48.39
2019-05-05T19:39:43.512Z,48.80
2019-05-05T19:42:14.425Z,48.80
2019-05-05T19:44:43.961Z,49.27
2019-05-05T19:47:19.051Z,49.43
2019-05-05T19:50:10.420Z,50.14
2019-05-05T19:52:39.853Z,50.02
2019-05-05T19:55:09.428Z,49.94
2019-05-05T19:57:39.184Z,49.86
2019-05-05T20:00:09.141Z,50.22
2019-05-05T20:02:38.591Z,49.98
2019-05-05T20:05:08.553Z,50.18
2019-05-05T20:07:38.059Z,50.19
2019-05-05T20:10:08.059Z,50.38
2019-05-05T20:12:37.462Z,50.61
2019-05-05T20:15:08.985Z,51.27
2019-05-05T20:17:38.578Z,50.67
2019-05-05T20:20:09.079Z,50.84
2019-05-05T20:22:39.305Z,50.98
2019-05-05T20:25:09.888Z,51.50
2019-05-05T20:27:39.316Z,51.24
2019-05-05T20:30:10.615Z,52.21
2019-05-05T20:32:49.619Z,52.37
2019-05-05T20:35:56.201Z,53.02
2019-05-05T20:38:44.022Z,54.03
2019-05-05T20:41:17.207Z,54.47
2019-05-05T20:43:46.678Z,55.64
2019-05-05T20:46:16.066Z,57.74
2019-05-05T20:48:45.491Z,59.78
2019-05-05T20:51:14.864Z,61.49
2019-05-05T20:53:45.236Z,63.21
2019-05-05T20:56:15.479Z,65.30
2019-05-05T20:58:44.854Z,66.22
2019-05-05T21:01:14.771Z,67.16
2019-05-05T21:03:44.137Z,67.78
2019-05-05T21:06:14.909Z,69.07
2019-05-05T21:08:44.343Z,69.67
2019-05-05T21:11:14.262Z,69.93
2019-05-05T21:13:45.071Z,70.05
2019-05-05T21:16:15.989Z,70.34
2019-05-05T21:18:45.434Z,70.49
2019-05-05T21:21:20.244Z,71.16
2019-05-05T21:23:57.771Z,71.69
2019-05-05T21:26:46.197Z,71.44
2019-05-05T21:29:16.405Z,71.35
2019-05-05T21:31:45.785Z,71.23
2019-05-05T21:34:15.193Z,71.22
2019-05-05T21:36:44.989Z,70.95
2019-05-05T21:39:14.977Z,71.15
2019-05-05T21:41:44.596Z,71.58
2019-05-05T21:44:14.729Z,71.43
2019-05-05T21:46:44.385Z,71.89
2019-05-05T21:49:13.951Z,72.29
2019-05-05T21:52:07.901Z,72.99
2019-05-05T21:54:44.330Z,73.18
2019-05-05T21:57:45.019Z,73.58
2019-05-05T22:00:34.711Z,73.55
2019-05-05T22:03:04.492Z,74.12
2019-05-05T22:05:34.472Z,73.57
2019-05-05T22:08:04.732Z,73.53
2019-05-05T22:10:34.453Z,74.06
2019-05-05T22:13:04.870Z,73.74
2019-05-05T22:15:35.719Z,73.88
2019-05-05T22:18:05.365Z,74.07
2019-05-05T22:20:40.426Z,74.18
2019-05-05T22:23:09.951Z,74.64
2019-05-05T22:25:39.426Z,74.71
2019-05-05T22:28:08.829Z,74.95
2019-05-05T22:30:38.455Z,75.64
2019-05-05T22:33:07.836Z,75.91
2019-05-05T22:35:37.251Z,76.21
2019-05-05T22:38:07.276Z,76.35
2019-05-05T22:40:36.675Z,77.02
2019-05-05T22:43:06.183Z,77.21
2019-05-05T22:45:35.540Z,77.55
2019-05-05T22:48:05.033Z,77.62
2019-05-05T22:50:35.130Z,77.55
2019-05-05T22:53:04.569Z,77.28
2019-05-05T22:55:34.552Z,77.04
2019-05-05T22:58:04.206Z,76.69
2019-05-05T23:00:34.820Z,76.61
2019-05-05T23:03:13.573Z,76.52
2019-05-05T23:05:54.686Z,76.42
2019-05-05T23:08:24.432Z,75.98
2019-05-05T23:10:54.458Z,75.44
2019-05-05T23:13:24.116Z,75.25
2019-05-05T23:16:00.499Z,74.98
2019-05-05T23:18:30.006Z,74.76
2019-05-05T23:21:17.459Z,74.92
2019-05-05T23:24:04.880Z,74.80
2019-05-05T23:26:36.244Z,74.73
2019-05-05T23:29:05.651Z,74.95
2019-05-05T23:31:35.085Z,75.29
2019-05-05T23:34:04.644Z,75.82
2019-05-05T23:36:34.104Z,76.00
2019-05-05T23:39:05.385Z,76.18
2019-05-05T23:41:35.315Z,76.40
2019-05-05T23:44:05.298Z,76.85
2019-05-05T23:46:34.969Z,77.35
2019-05-05T23:49:04.597Z,77.46
2019-05-05T23:51:34.675Z,77.50
2019-05-05T23:54:04.484Z,77.20
2019-05-05T23:56:34.933Z,77.39
2019-05-05T23:59:04.606Z,77.70
